sensor_id;sensor_type;location;lat;lon;timestamp;P1;durP1;ratioP1;P2;durP2;ratioP2
9970;SDS011;5026;51.494;11.974;2022-11-21T00:00:30;64.13;;;23.60;;
9970;SDS011;5026;51.494;11.974;2022-11-21T00:02:58;58.20;;;21.93;;
9970;SDS011;5026;51.494;11.974;2022-11-21T00:05:26;58.37;;;21.50;;
9970;SDS011;5026;51.494;11.974;2022-11-21T00:07:53;56.60;;;23.07;;
9970;SDS011;5026;51.494;11.974;2022-11-21T00:10:21;65.07;;;23.07;;
9970;SDS011;5026;51.494;11.974;2022-11-21T00:12:53;70.23;;;24.00;;
9970;SDS011;5026;51.494;11.974;2022-11-21T00:15:20;60.93;;;22.63;;
9970;SDS011;5026;51.494;11.974;2022-11-21T00:17:47;66.83;;;24.73;;
9970;SDS011;5026;51.494;11.974;2022-11-21T00:20:15;63.67;;;23.97;;
9970;SDS011;5026;51.494;11.974;2022-11-21T00:22:42;65.87;;;25.00;;
9970;SDS011;5026;51.494;11.974;2022-11-21T00:25:12;60.80;;;25.97;;
9970;SDS011;5026;51.494;11.974;2022-11-21T00:27:39;71.30;;;28.97;;
9970;SDS011;5026;51.494;11.974;2022-11-21T00:30:09;62.40;;;25.27;;
9970;SDS011;5026;51.494;11.974;2022-11-21T00:32:36;64.23;;;24.97;;
9970;SDS011;5026;51.494;11.974;2022-11-21T00:35:04;80.07;;;26.70;;
9970;SDS011;5026;51.494;11.974;2022-11-21T00:37:31;68.97;;;27.30;;
9970;SDS011;5026;51.494;11.974;2022-11-21T00:39:58;63.90;;;25.67;;
9970;SDS011;5026;51.494;11.974;2022-11-21T00:42:26;72.43;;;26.73;;
9970;SDS011;5026;51.494;11.974;2022-11-21T00:44:53;59.20;;;23.77;;
9970;SDS011;5026;51.494;11.974;2022-11-21T00:47:21;62.33;;;24.13;;
9970;SDS011;5026;51.494;11.974;2022-11-21T00:49:48;76.97;;;27.20;;
9970;SDS011;5026;51.494;11.974;2022-11-21T00:52:16;74.60;;;26.83;;
9970;SDS011;5026;51.494;11.974;2022-11-21T00:54:44;80.93;;;27.60;;
9970;SDS011;5026;51.494;11.974;2022-11-21T00:57:11;84.53;;;27.83;;
9970;SDS011;5026;51.494;11.974;2022-11-21T00:59:38;72.07;;;25.23;;
9970;SDS011;5026;51.494;11.974;2022-11-21T01:02:05;70.47;;;26.17;;
9970;SDS011;5026;51.494;11.974;2022-11-21T01:04:34;78.20;;;28.53;;
9970;SDS011;5026;51.494;11.974;2022-11-21T01:07:01;76.80;;;29.13;;
9970;SDS011;5026;51.494;11.974;2022-11-21T01:09:28;74.47;;;25.70;;
9970;SDS011;5026;51.494;11.974;2022-11-21T01:11:55;75.57;;;25.73;;
9970;SDS011;5026;51.494;11.974;2022-11-21T01:14:23;86.53;;;28.07;;
9970;SDS011;5026;51.494;11.974;2022-11-21T01:16:50;73.90;;;29.60;;
9970;SDS011;5026;51.494;11.974;2022-11-21T01:19:17;83.43;;;27.50;;
9970;SDS011;5026;51.494;11.974;2022-11-21T01:21:46;72.63;;;25.47;;
9970;SDS011;5026;51.494;11.974;2022-11-21T01:24:16;77.97;;;26.27;;
9970;SDS011;5026;51.494;11.974;2022-11-21T01:26:43;76.73;;;28.30;;
9970;SDS011;5026;51.494;11.974;2022-11-21T01:29:10;65.00;;;25.80;;
9970;SDS011;5026;51.494;11.974;2022-11-21T01:31:37;70.17;;;26.30;;
9970;SDS011;5026;51.494;11.974;2022-11-21T01:34:05;69.40;;;24.97;;
9970;SDS011;5026;51.494;11.974;2022-11-21T01:36:32;72.43;;;25.87;;
9970;SDS011;5026;51.494;11.974;2022-11-21T01:39:02;72.60;;;25.57;;
9970;SDS011;5026;51.494;11.974;2022-11-21T01:41:34;66.47;;;23.97;;
9970;SDS011;5026;51.494;11.974;2022-11-21T01:44:02;74.63;;;25.70;;
9970;SDS011;5026;51.494;11.974;2022-11-21T01:46:29;75.50;;;25.70;;
9970;SDS011;5026;51.494;11.974;2022-11-21T01:48:57;66.63;;;23.50;;
9970;SDS011;5026;51.494;11.974;2022-11-21T01:51:27;69.87;;;25.27;;
9970;SDS011;5026;51.494;11.974;2022-11-21T01:53:57;69.23;;;26.93;;
9970;SDS011;5026;51.494;11.974;2022-11-21T01:56:26;68.67;;;24.77;;
9970;SDS011;5026;51.494;11.974;2022-11-21T01:58:55;67.63;;;23.20;;
9970;SDS011;5026;51.494;11.974;2022-11-21T02:01:22;71.17;;;25.03;;
9970;SDS011;5026;51.494;11.974;2022-11-21T02:03:50;74.00;;;24.43;;
9970;SDS011;5026;51.494;11.974;2022-11-21T02:06:19;74.73;;;25.27;;
9970;SDS011;5026;51.494;11.974;2022-11-21T02:08:46;66.43;;;23.63;;
9970;SDS011;5026;51.494;11.974;2022-11-21T02:11:15;70.70;;;26.60;;
9970;SDS011;5026;51.494;11.974;2022-11-21T02:13:45;79.07;;;26.57;;
9970;SDS011;5026;51.494;11.974;2022-11-21T02:16:12;66.87;;;24.10;;
9970;SDS011;5026;51.494;11.974;2022-11-21T02:18:39;65.10;;;24.00;;
9970;SDS011;5026;51.494;11.974;2022-11-21T02:21:10;55.93;;;21.97;;
9970;SDS011;5026;51.494;11.974;2022-11-21T02:23:39;64.17;;;23.33;;
9970;SDS011;5026;51.494;11.974;2022-11-21T02:26:09;95.57;;;27.67;;
9970;SDS011;5026;51.494;11.974;2022-11-21T02:28:36;65.53;;;22.93;;
9970;SDS011;5026;51.494;11.974;2022-11-21T02:31:03;72.63;;;25.83;;
9970;SDS011;5026;51.494;11.974;2022-11-21T02:33:30;74.53;;;25.23;;
9970;SDS011;5026;51.494;11.974;2022-11-21T02:35:58;72.63;;;24.87;;
9970;SDS011;5026;51.494;11.974;2022-11-21T02:38:26;66.70;;;25.23;;
9970;SDS011;5026;51.494;11.974;2022-11-21T02:40:57;88.83;;;28.87;;
9970;SDS011;5026;51.494;11.974;2022-11-21T02:43:28;75.33;;;25.93;;
9970;SDS011;5026;51.494;11.974;2022-11-21T02:45:57;75.07;;;26.37;;
9970;SDS011;5026;51.494;11.974;2022-11-21T02:48:24;75.80;;;25.57;;
9970;SDS011;5026;51.494;11.974;2022-11-21T02:50:51;81.77;;;26.47;;
9970;SDS011;5026;51.494;11.974;2022-11-21T02:53:18;69.80;;;26.90;;
9970;SDS011;5026;51.494;11.974;2022-11-21T02:55:45;82.00;;;27.77;;
9970;SDS011;5026;51.494;11.974;2022-11-21T02:58:13;86.27;;;25.83;;
9970;SDS011;5026;51.494;11.974;2022-11-21T03:00:41;88.10;;;26.33;;
9970;SDS011;5026;51.494;11.974;2022-11-21T03:03:09;73.57;;;23.90;;
9970;SDS011;5026;51.494;11.974;2022-11-21T03:05:36;71.63;;;25.03;;
9970;SDS011;5026;51.494;11.974;2022-11-21T03:08:04;83.37;;;27.80;;
9970;SDS011;5026;51.494;11.974;2022-11-21T03:10:31;69.07;;;24.03;;
9970;SDS011;5026;51.494;11.974;2022-11-21T03:12:58;71.47;;;24.70;;
9970;SDS011;5026;51.494;11.974;2022-11-21T03:15:27;75.07;;;24.83;;
9970;SDS011;5026;51.494;11.974;2022-11-21T03:17:56;79.60;;;24.47;;
9970;SDS011;5026;51.494;11.974;2022-11-21T03:20:25;70.30;;;22.97;;
9970;SDS011;5026;51.494;11.974;2022-11-21T03:22:52;65.60;;;24.97;;
9970;SDS011;5026;51.494;11.974;2022-11-21T03:25:19;68.60;;;23.90;;
9970;SDS011;5026;51.494;11.974;2022-11-21T03:27:48;71.83;;;25.47;;
9970;SDS011;5026;51.494;11.974;2022-11-21T03:30:16;78.00;;;24.87;;
9970;SDS011;5026;51.494;11.974;2022-11-21T03:32:43;64.37;;;22.90;;
9970;SDS011;5026;51.494;11.974;2022-11-21T03:35:11;71.67;;;23.83;;
9970;SDS011;5026;51.494;11.974;2022-11-21T03:37:39;73.30;;;23.07;;
9970;SDS011;5026;51.494;11.974;2022-11-21T03:40:06;64.53;;;23.70;;
9970;SDS011;5026;51.494;11.974;2022-11-21T03:42:34;70.50;;;22.67;;
9970;SDS011;5026;51.494;11.974;2022-11-21T03:45:02;62.30;;;22.50;;
9970;SDS011;5026;51.494;11.974;2022-11-21T03:47:29;64.43;;;22.67;;
9970;SDS011;5026;51.494;11.974;2022-11-21T03:49:56;58.87;;;21.73;;
9970;SDS011;5026;51.494;11.974;2022-11-21T03:52:25;70.30;;;22.90;;
9970;SDS011;5026;51.494;11.974;2022-11-21T03:54:52;61.90;;;22.03;;
9970;SDS011;5026;51.494;11.974;2022-11-21T03:57:21;68.50;;;22.07;;
9970;SDS011;5026;51.494;11.974;2022-11-21T03:59:48;70.23;;;23.40;;
9970;SDS011;5026;51.494;11.974;2022-11-21T04:02:16;63.20;;;22.30;;
9970;SDS011;5026;51.494;11.974;2022-11-21T04:04:43;72.57;;;23.37;;
9970;SDS011;5026;51.494;11.974;2022-11-21T04:07:10;60.97;;;22.40;;
9970;SDS011;5026;51.494;11.974;2022-11-21T04:09:38;75.87;;;23.30;;
9970;SDS011;5026;51.494;11.974;2022-11-21T04:12:06;57.77;;;21.07;;
9970;SDS011;5026;51.494;11.974;2022-11-21T04:14:33;71.03;;;23.23;;
9970;SDS011;5026;51.494;11.974;2022-11-21T04:17:00;58.33;;;22.10;;
9970;SDS011;5026;51.494;11.974;2022-11-21T04:19:28;60.83;;;21.67;;
9970;SDS011;5026;51.494;11.974;2022-11-21T04:21:55;64.27;;;22.13;;
9970;SDS011;5026;51.494;11.974;2022-11-21T04:24:22;62.90;;;22.13;;
9970;SDS011;5026;51.494;11.974;2022-11-21T04:26:50;70.20;;;23.97;;
9970;SDS011;5026;51.494;11.974;2022-11-21T04:29:19;65.63;;;23.17;;
9970;SDS011;5026;51.494;11.974;2022-11-21T04:31:46;67.97;;;22.93;;
9970;SDS011;5026;51.494;11.974;2022-11-21T04:34:14;64.63;;;21.73;;
9970;SDS011;5026;51.494;11.974;2022-11-21T04:36:41;61.13;;;22.20;;
9970;SDS011;5026;51.494;11.974;2022-11-21T04:39:08;61.70;;;20.77;;
9970;SDS011;5026;51.494;11.974;2022-11-21T04:41:35;58.07;;;22.40;;
9970;SDS011;5026;51.494;11.974;2022-11-21T04:44:04;58.43;;;20.87;;
9970;SDS011;5026;51.494;11.974;2022-11-21T04:46:31;67.97;;;23.70;;
9970;SDS011;5026;51.494;11.974;2022-11-21T04:48:58;59.93;;;22.53;;
9970;SDS011;5026;51.494;11.974;2022-11-21T04:51:25;58.63;;;22.57;;
9970;SDS011;5026;51.494;11.974;2022-11-21T04:53:52;76.90;;;24.83;;
9970;SDS011;5026;51.494;11.974;2022-11-21T04:56:20;64.73;;;23.67;;
9970;SDS011;5026;51.494;11.974;2022-11-21T04:58:50;68.33;;;23.10;;
9970;SDS011;5026;51.494;11.974;2022-11-21T05:01:18;58.00;;;22.10;;
9970;SDS011;5026;51.494;11.974;2022-11-21T05:03:45;67.65;;;24.48;;
9970;SDS011;5026;51.494;11.974;2022-11-21T05:06:13;73.60;;;24.83;;
9970;SDS011;5026;51.494;11.974;2022-11-21T05:08:40;60.00;;;22.03;;
9970;SDS011;5026;51.494;11.974;2022-11-21T05:11:07;61.27;;;21.80;;
9970;SDS011;5026;51.494;11.974;2022-11-21T05:13:52;74.47;;;24.17;;
9970;SDS011;5026;51.494;11.974;2022-11-21T05:16:20;82.50;;;27.50;;
9970;SDS011;5026;51.494;11.974;2022-11-21T05:18:47;79.40;;;26.77;;
9970;SDS011;5026;51.494;11.974;2022-11-21T05:21:15;68.63;;;24.97;;
9970;SDS011;5026;51.494;11.974;2022-11-21T05:23:42;83.37;;;25.90;;
9970;SDS011;5026;51.494;11.974;2022-11-21T05:26:09;63.63;;;23.33;;
9970;SDS011;5026;51.494;11.974;2022-11-21T05:28:36;58.40;;;20.77;;
9970;SDS011;5026;51.494;11.974;2022-11-21T05:31:03;76.30;;;24.63;;
9970;SDS011;5026;51.494;11.974;2022-11-21T05:33:31;55.40;;;22.47;;
9970;SDS011;5026;51.494;11.974;2022-11-21T05:35:59;58.57;;;22.63;;
9970;SDS011;5026;51.494;11.974;2022-11-21T05:38:26;64.10;;;21.93;;
9970;SDS011;5026;51.494;11.974;2022-11-21T05:40:53;65.33;;;22.23;;
9970;SDS011;5026;51.494;11.974;2022-11-21T05:43:20;57.53;;;20.93;;
9970;SDS011;5026;51.494;11.974;2022-11-21T05:46:05;53.23;;;21.37;;
9970;SDS011;5026;51.494;11.974;2022-11-21T05:48:34;48.20;;;19.13;;
9970;SDS011;5026;51.494;11.974;2022-11-21T05:51:01;50.93;;;19.37;;
9970;SDS011;5026;51.494;11.974;2022-11-21T05:53:28;57.33;;;20.17;;
9970;SDS011;5026;51.494;11.974;2022-11-21T05:55:55;58.23;;;21.10;;
9970;SDS011;5026;51.494;11.974;2022-11-21T05:58:27;51.27;;;20.27;;
9970;SDS011;5026;51.494;11.974;2022-11-21T06:00:55;52.23;;;20.77;;
9970;SDS011;5026;51.494;11.974;2022-11-21T06:03:22;59.43;;;21.63;;
9970;SDS011;5026;51.494;11.974;2022-11-21T06:05:56;50.53;;;18.63;;
9970;SDS011;5026;51.494;11.974;2022-11-21T06:08:24;53.27;;;19.33;;
9970;SDS011;5026;51.494;11.974;2022-11-21T06:10:51;58.40;;;20.67;;
9970;SDS011;5026;51.494;11.974;2022-11-21T06:13:18;49.57;;;19.47;;
9970;SDS011;5026;51.494;11.974;2022-11-21T06:15:49;62.83;;;21.60;;
9970;SDS011;5026;51.494;11.974;2022-11-21T06:18:16;54.20;;;21.43;;
9970;SDS011;5026;51.494;11.974;2022-11-21T06:20:44;57.77;;;20.13;;
9970;SDS011;5026;51.494;11.974;2022-11-21T06:23:12;45.30;;;17.73;;
9970;SDS011;5026;51.494;11.974;2022-11-21T06:25:40;43.87;;;18.03;;
9970;SDS011;5026;51.494;11.974;2022-11-21T06:28:07;40.43;;;17.50;;
9970;SDS011;5026;51.494;11.974;2022-11-21T06:30:34;47.60;;;17.20;;
9970;SDS011;5026;51.494;11.974;2022-11-21T06:33:02;44.47;;;16.97;;
9970;SDS011;5026;51.494;11.974;2022-11-21T06:35:29;44.93;;;16.87;;
9970;SDS011;5026;51.494;11.974;2022-11-21T06:37:57;49.67;;;18.30;;
9970;SDS011;5026;51.494;11.974;2022-11-21T06:40:25;52.17;;;19.60;;
9970;SDS011;5026;51.494;11.974;2022-11-21T06:42:53;54.93;;;19.07;;
9970;SDS011;5026;51.494;11.974;2022-11-21T06:45:20;51.10;;;18.60;;
9970;SDS011;5026;51.494;11.974;2022-11-21T06:47:48;49.17;;;18.20;;
9970;SDS011;5026;51.494;11.974;2022-11-21T06:50:15;50.43;;;17.70;;
9970;SDS011;5026;51.494;11.974;2022-11-21T06:52:42;51.30;;;17.37;;
9970;SDS011;5026;51.494;11.974;2022-11-21T06:55:10;58.17;;;17.50;;
9970;SDS011;5026;51.494;11.974;2022-11-21T06:57:38;60.07;;;20.03;;
9970;SDS011;5026;51.494;11.974;2022-11-21T07:00:06;59.00;;;18.83;;
9970;SDS011;5026;51.494;11.974;2022-11-21T07:02:33;62.33;;;18.10;;
9970;SDS011;5026;51.494;11.974;2022-11-21T07:05:00;64.63;;;18.47;;
9970;SDS011;5026;51.494;11.974;2022-11-21T07:07:28;54.00;;;16.83;;
9970;SDS011;5026;51.494;11.974;2022-11-21T07:09:55;68.77;;;18.97;;
9970;SDS011;5026;51.494;11.974;2022-11-21T07:12:22;62.20;;;18.80;;
9970;SDS011;5026;51.494;11.974;2022-11-21T07:15:17;46.43;;;15.73;;
9970;SDS011;5026;51.494;11.974;2022-11-21T07:17:44;44.27;;;15.60;;
9970;SDS011;5026;51.494;11.974;2022-11-21T07:20:11;49.33;;;17.13;;
9970;SDS011;5026;51.494;11.974;2022-11-21T07:22:38;46.90;;;16.73;;
9970;SDS011;5026;51.494;11.974;2022-11-21T07:25:05;38.13;;;14.93;;
9970;SDS011;5026;51.494;11.974;2022-11-21T07:27:33;53.50;;;17.40;;
9970;SDS011;5026;51.494;11.974;2022-11-21T07:30:00;49.20;;;18.07;;
9970;SDS011;5026;51.494;11.974;2022-11-21T07:32:28;51.60;;;17.43;;
9970;SDS011;5026;51.494;11.974;2022-11-21T07:34:55;51.60;;;18.30;;
9970;SDS011;5026;51.494;11.974;2022-11-21T07:37:23;49.27;;;18.37;;
9970;SDS011;5026;51.494;11.974;2022-11-21T07:39:50;59.33;;;18.80;;
9970;SDS011;5026;51.494;11.974;2022-11-21T07:42:17;60.03;;;19.53;;
9970;SDS011;5026;51.494;11.974;2022-11-21T07:44:44;54.03;;;19.03;;
9970;SDS011;5026;51.494;11.974;2022-11-21T07:47:11;61.20;;;19.60;;
9970;SDS011;5026;51.494;11.974;2022-11-21T07:49:40;43.60;;;17.77;;
9970;SDS011;5026;51.494;11.974;2022-11-21T07:52:07;47.70;;;18.07;;
9970;SDS011;5026;51.494;11.974;2022-11-21T07:54:34;48.50;;;17.47;;
9970;SDS011;5026;51.494;11.974;2022-11-21T07:57:01;40.43;;;16.17;;
9970;SDS011;5026;51.494;11.974;2022-11-21T07:59:28;52.87;;;18.00;;
9970;SDS011;5026;51.494;11.974;2022-11-21T08:01:55;57.33;;;18.00;;
9970;SDS011;5026;51.494;11.974;2022-11-21T08:04:22;51.37;;;18.50;;
9970;SDS011;5026;51.494;11.974;2022-11-21T08:06:51;55.87;;;18.57;;
9970;SDS011;5026;51.494;11.974;2022-11-21T08:09:18;54.13;;;17.97;;
9970;SDS011;5026;51.494;11.974;2022-11-21T08:11:45;57.47;;;19.13;;
9970;SDS011;5026;51.494;11.974;2022-11-21T08:14:13;53.87;;;18.87;;
9970;SDS011;5026;51.494;11.974;2022-11-21T08:16:40;54.50;;;18.63;;
9970;SDS011;5026;51.494;11.974;2022-11-21T08:19:07;51.67;;;18.17;;
9970;SDS011;5026;51.494;11.974;2022-11-21T08:21:34;44.57;;;16.63;;
9970;SDS011;5026;51.494;11.974;2022-11-21T08:24:05;44.47;;;17.50;;
9970;SDS011;5026;51.494;11.974;2022-11-21T08:26:37;45.43;;;17.47;;
9970;SDS011;5026;51.494;11.974;2022-11-21T08:29:04;49.33;;;18.07;;
9970;SDS011;5026;51.494;11.974;2022-11-21T08:31:31;47.50;;;16.40;;
9970;SDS011;5026;51.494;11.974;2022-11-21T08:33:58;51.57;;;18.13;;
9970;SDS011;5026;51.494;11.974;2022-11-21T08:36:26;53.80;;;18.53;;
9970;SDS011;5026;51.494;11.974;2022-11-21T08:38:53;42.67;;;15.90;;
9970;SDS011;5026;51.494;11.974;2022-11-21T08:41:21;41.40;;;15.70;;
9970;SDS011;5026;51.494;11.974;2022-11-21T08:44:06;43.50;;;16.23;;
9970;SDS011;5026;51.494;11.974;2022-11-21T08:46:33;48.57;;;20.03;;
9970;SDS011;5026;51.494;11.974;2022-11-21T08:49:01;41.97;;;16.90;;
9970;SDS011;5026;51.494;11.974;2022-11-21T08:51:28;43.50;;;17.77;;
9970;SDS011;5026;51.494;11.974;2022-11-21T08:53:55;54.47;;;18.33;;
9970;SDS011;5026;51.494;11.974;2022-11-21T08:56:24;47.03;;;18.60;;
9970;SDS011;5026;51.494;11.974;2022-11-21T08:58:51;52.13;;;17.93;;
9970;SDS011;5026;51.494;11.974;2022-11-21T09:01:18;43.53;;;16.43;;
9970;SDS011;5026;51.494;11.974;2022-11-21T09:03:45;49.07;;;17.80;;
9970;SDS011;5026;51.494;11.974;2022-11-21T09:06:13;42.87;;;16.03;;
9970;SDS011;5026;51.494;11.974;2022-11-21T09:08:40;39.53;;;15.83;;
9970;SDS011;5026;51.494;11.974;2022-11-21T09:11:08;42.23;;;15.70;;
9970;SDS011;5026;51.494;11.974;2022-11-21T09:13:36;45.80;;;17.33;;
9970;SDS011;5026;51.494;11.974;2022-11-21T09:16:04;44.63;;;17.83;;
9970;SDS011;5026;51.494;11.974;2022-11-21T09:18:50;40.40;;;15.60;;
9970;SDS011;5026;51.494;11.974;2022-11-21T09:21:18;36.60;;;14.33;;
9970;SDS011;5026;51.494;11.974;2022-11-21T09:23:45;38.07;;;14.40;;
9970;SDS011;5026;51.494;11.974;2022-11-21T09:26:13;30.40;;;14.03;;
9970;SDS011;5026;51.494;11.974;2022-11-21T09:28:41;32.07;;;13.20;;
9970;SDS011;5026;51.494;11.974;2022-11-21T09:31:08;31.20;;;12.83;;
9970;SDS011;5026;51.494;11.974;2022-11-21T09:33:36;29.20;;;12.90;;
9970;SDS011;5026;51.494;11.974;2022-11-21T09:36:03;32.80;;;13.00;;
9970;SDS011;5026;51.494;11.974;2022-11-21T09:38:31;30.37;;;12.93;;
9970;SDS011;5026;51.494;11.974;2022-11-21T09:41:00;29.67;;;13.40;;
9970;SDS011;5026;51.494;11.974;2022-11-21T09:43:55;31.97;;;13.30;;
9970;SDS011;5026;51.494;11.974;2022-11-21T09:46:25;30.80;;;12.47;;
9970;SDS011;5026;51.494;11.974;2022-11-21T09:48:55;32.53;;;12.63;;
9970;SDS011;5026;51.494;11.974;2022-11-21T09:51:23;27.67;;;11.00;;
9970;SDS011;5026;51.494;11.974;2022-11-21T09:53:55;34.40;;;12.70;;
9970;SDS011;5026;51.494;11.974;2022-11-21T09:56:23;31.77;;;12.00;;
9970;SDS011;5026;51.494;11.974;2022-11-21T09:58:57;23.93;;;10.43;;
9970;SDS011;5026;51.494;11.974;2022-11-21T10:01:31;23.97;;;10.73;;
9970;SDS011;5026;51.494;11.974;2022-11-21T10:03:58;25.03;;;10.47;;
9970;SDS011;5026;51.494;11.974;2022-11-21T10:06:28;28.73;;;11.77;;
9970;SDS011;5026;51.494;11.974;2022-11-21T10:08:56;24.93;;;10.57;;
9970;SDS011;5026;51.494;11.974;2022-11-21T10:11:30;26.60;;;11.37;;
9970;SDS011;5026;51.494;11.974;2022-11-21T10:14:05;25.27;;;11.47;;
9970;SDS011;5026;51.494;11.974;2022-11-21T10:16:39;26.47;;;11.40;;
9970;SDS011;5026;51.494;11.974;2022-11-21T10:24:39;20.67;;;9.73;;
9970;SDS011;5026;51.494;11.974;2022-11-21T10:27:11;29.23;;;11.27;;
9970;SDS011;5026;51.494;11.974;2022-11-21T10:29:40;23.77;;;10.03;;
9970;SDS011;5026;51.494;11.974;2022-11-21T10:32:10;24.43;;;10.73;;
9970;SDS011;5026;51.494;11.974;2022-11-21T10:34:41;22.10;;;10.30;;
9970;SDS011;5026;51.494;11.974;2022-11-21T10:37:09;28.63;;;10.67;;
9970;SDS011;5026;51.494;11.974;2022-11-21T10:39:40;40.87;;;13.10;;
9970;SDS011;5026;51.494;11.974;2022-11-21T10:42:11;35.77;;;11.77;;
9970;SDS011;5026;51.494;11.974;2022-11-21T10:44:43;29.20;;;10.70;;
9970;SDS011;5026;51.494;11.974;2022-11-21T10:47:30;27.63;;;10.80;;
9970;SDS011;5026;51.494;11.974;2022-11-21T10:49:59;28.77;;;11.20;;
9970;SDS011;5026;51.494;11.974;2022-11-21T10:52:30;25.13;;;10.90;;
9970;SDS011;5026;51.494;11.974;2022-11-21T10:55:01;18.73;;;9.33;;
9970;SDS011;5026;51.494;11.974;2022-11-21T10:57:27;23.93;;;10.30;;
9970;SDS011;5026;51.494;11.974;2022-11-21T10:59:57;30.57;;;10.37;;
9970;SDS011;5026;51.494;11.974;2022-11-21T11:02:26;23.93;;;9.87;;
9970;SDS011;5026;51.494;11.974;2022-11-21T11:07:35;19.27;;;8.50;;
9970;SDS011;5026;51.494;11.974;2022-11-21T11:10:13;21.60;;;10.00;;
9970;SDS011;5026;51.494;11.974;2022-11-21T11:12:40;21.37;;;8.87;;
9970;SDS011;5026;51.494;11.974;2022-11-21T11:15:26;21.13;;;8.40;;
9970;SDS011;5026;51.494;11.974;2022-11-21T11:17:54;31.03;;;11.67;;
9970;SDS011;5026;51.494;11.974;2022-11-21T11:20:29;24.17;;;9.53;;
9970;SDS011;5026;51.494;11.974;2022-11-21T11:22:57;17.63;;;7.37;;
9970;SDS011;5026;51.494;11.974;2022-11-21T11:25:24;19.20;;;7.30;;
9970;SDS011;5026;51.494;11.974;2022-11-21T11:27:51;29.20;;;9.53;;
9970;SDS011;5026;51.494;11.974;2022-11-21T11:30:20;16.63;;;6.97;;
9970;SDS011;5026;51.494;11.974;2022-11-21T11:32:48;22.40;;;7.40;;
9970;SDS011;5026;51.494;11.974;2022-11-21T11:35:20;22.30;;;8.40;;
9970;SDS011;5026;51.494;11.974;2022-11-21T11:37:49;23.97;;;8.83;;
9970;SDS011;5026;51.494;11.974;2022-11-21T11:40:22;20.33;;;8.10;;
9970;SDS011;5026;51.494;11.974;2022-11-21T11:42:53;29.87;;;9.70;;
9970;SDS011;5026;51.494;11.974;2022-11-21T11:45:42;16.63;;;7.27;;
9970;SDS011;5026;51.494;11.974;2022-11-21T11:48:30;17.27;;;7.80;;
9970;SDS011;5026;51.494;11.974;2022-11-21T11:51:03;21.40;;;8.43;;
9970;SDS011;5026;51.494;11.974;2022-11-21T11:53:32;18.60;;;8.13;;
9970;SDS011;5026;51.494;11.974;2022-11-21T11:56:01;16.13;;;7.37;;
9970;SDS011;5026;51.494;11.974;2022-11-21T11:58:32;16.73;;;7.93;;
9970;SDS011;5026;51.494;11.974;2022-11-21T12:01:01;17.53;;;7.90;;
9970;SDS011;5026;51.494;11.974;2022-11-21T12:03:37;21.53;;;8.43;;
9970;SDS011;5026;51.494;11.974;2022-11-21T12:06:09;19.87;;;8.70;;
9970;SDS011;5026;51.494;11.974;2022-11-21T12:08:40;17.10;;;7.67;;
9970;SDS011;5026;51.494;11.974;2022-11-21T12:11:10;19.67;;;7.93;;
9970;SDS011;5026;51.494;11.974;2022-11-21T12:13:57;20.27;;;7.50;;
9970;SDS011;5026;51.494;11.974;2022-11-21T12:16:31;16.80;;;7.60;;
9970;SDS011;5026;51.494;11.974;2022-11-21T12:19:01;16.73;;;7.70;;
9970;SDS011;5026;51.494;11.974;2022-11-21T12:21:29;20.80;;;8.50;;
9970;SDS011;5026;51.494;11.974;2022-11-21T12:24:01;24.40;;;9.27;;
9970;SDS011;5026;51.494;11.974;2022-11-21T12:26:35;19.87;;;8.67;;
9970;SDS011;5026;51.494;11.974;2022-11-21T12:29:12;22.97;;;9.50;;
9970;SDS011;5026;51.494;11.974;2022-11-21T12:31:46;25.37;;;9.53;;
9970;SDS011;5026;51.494;11.974;2022-11-21T12:34:21;24.37;;;9.93;;
9970;SDS011;5026;51.494;11.974;2022-11-21T12:36:52;28.47;;;9.37;;
9970;SDS011;5026;51.494;11.974;2022-11-21T12:39:32;27.33;;;10.60;;
9970;SDS011;5026;51.494;11.974;2022-11-21T12:42:04;30.23;;;10.30;;
9970;SDS011;5026;51.494;11.974;2022-11-21T12:45:00;31.07;;;10.90;;
9970;SDS011;5026;51.494;11.974;2022-11-21T12:47:48;33.23;;;12.13;;
9970;SDS011;5026;51.494;11.974;2022-11-21T12:50:37;26.23;;;11.20;;
9970;SDS011;5026;51.494;11.974;2022-11-21T12:53:24;29.43;;;11.37;;
9970;SDS011;5026;51.494;11.974;2022-11-21T12:56:15;32.90;;;13.10;;
9970;SDS011;5026;51.494;11.974;2022-11-21T12:58:46;33.20;;;12.77;;
9970;SDS011;5026;51.494;11.974;2022-11-21T13:01:18;31.57;;;12.30;;
9970;SDS011;5026;51.494;11.974;2022-11-21T13:03:53;28.23;;;10.47;;
9970;SDS011;5026;51.494;11.974;2022-11-21T13:06:25;32.03;;;11.07;;
9970;SDS011;5026;51.494;11.974;2022-11-21T13:08:53;38.30;;;13.87;;
9970;SDS011;5026;51.494;11.974;2022-11-21T13:11:26;32.93;;;10.90;;
9970;SDS011;5026;51.494;11.974;2022-11-21T13:14:14;32.17;;;12.37;;
9970;SDS011;5026;51.494;11.974;2022-11-21T13:16:45;50.77;;;14.50;;
9970;SDS011;5026;51.494;11.974;2022-11-21T13:19:17;44.00;;;14.03;;
9970;SDS011;5026;51.494;11.974;2022-11-21T13:21:48;45.00;;;12.33;;
9970;SDS011;5026;51.494;11.974;2022-11-21T13:27:03;44.97;;;13.30;;
9970;SDS011;5026;51.494;11.974;2022-11-21T13:29:30;54.87;;;15.20;;
9970;SDS011;5026;51.494;11.974;2022-11-21T13:34:54;55.07;;;16.80;;
9970;SDS011;5026;51.494;11.974;2022-11-21T13:45:38;71.67;;;19.70;;
9970;SDS011;5026;51.494;11.974;2022-11-21T13:48:20;53.07;;;16.63;;
9970;SDS011;5026;51.494;11.974;2022-11-21T13:51:01;82.07;;;23.10;;
9970;SDS011;5026;51.494;11.974;2022-11-21T13:53:45;53.33;;;16.77;;
9970;SDS011;5026;51.494;11.974;2022-11-21T13:56:23;66.00;;;21.63;;
9970;SDS011;5026;51.494;11.974;2022-11-21T13:58:53;59.17;;;21.03;;
9970;SDS011;5026;51.494;11.974;2022-11-21T14:01:36;64.13;;;20.07;;
9970;SDS011;5026;51.494;11.974;2022-11-21T14:04:33;48.30;;;16.93;;
9970;SDS011;5026;51.494;11.974;2022-11-21T14:07:24;50.27;;;16.10;;
9970;SDS011;5026;51.494;11.974;2022-11-21T14:09:52;57.50;;;18.20;;
9970;SDS011;5026;51.494;11.974;2022-11-21T14:12:20;50.60;;;17.43;;
9970;SDS011;5026;51.494;11.974;2022-11-21T14:14:50;48.17;;;17.47;;
9970;SDS011;5026;51.494;11.974;2022-11-21T14:17:29;46.73;;;15.87;;
9970;SDS011;5026;51.494;11.974;2022-11-21T14:19:59;49.50;;;15.93;;
9970;SDS011;5026;51.494;11.974;2022-11-21T14:22:30;43.13;;;13.03;;
9970;SDS011;5026;51.494;11.974;2022-11-21T14:24:58;54.93;;;17.03;;
9970;SDS011;5026;51.494;11.974;2022-11-21T14:27:28;60.67;;;16.70;;
9970;SDS011;5026;51.494;11.974;2022-11-21T14:29:56;51.07;;;17.97;;
9970;SDS011;5026;51.494;11.974;2022-11-21T14:32:28;70.10;;;20.80;;
9970;SDS011;5026;51.494;11.974;2022-11-21T14:35:08;66.77;;;20.57;;
9970;SDS011;5026;51.494;11.974;2022-11-21T14:37:38;54.00;;;15.03;;
9970;SDS011;5026;51.494;11.974;2022-11-21T14:40:09;70.07;;;22.43;;
9970;SDS011;5026;51.494;11.974;2022-11-21T14:42:37;66.97;;;20.53;;
9970;SDS011;5026;51.494;11.974;2022-11-21T14:45:04;66.57;;;21.10;;
9970;SDS011;5026;51.494;11.974;2022-11-21T14:47:33;62.30;;;20.03;;
9970;SDS011;5026;51.494;11.974;2022-11-21T14:50:00;43.13;;;14.63;;
9970;SDS011;5026;51.494;11.974;2022-11-21T14:52:29;46.53;;;15.50;;
9970;SDS011;5026;51.494;11.974;2022-11-21T14:54:57;46.87;;;14.80;;
9970;SDS011;5026;51.494;11.974;2022-11-21T14:57:25;47.60;;;14.70;;
9970;SDS011;5026;51.494;11.974;2022-11-21T14:59:53;52.20;;;17.07;;
9970;SDS011;5026;51.494;11.974;2022-11-21T15:02:21;33.20;;;12.43;;
9970;SDS011;5026;51.494;11.974;2022-11-21T15:04:51;36.30;;;12.50;;
9970;SDS011;5026;51.494;11.974;2022-11-21T15:07:21;36.00;;;12.30;;
9970;SDS011;5026;51.494;11.974;2022-11-21T15:09:49;42.27;;;13.07;;
9970;SDS011;5026;51.494;11.974;2022-11-21T15:12:19;37.97;;;13.03;;